MST,Max TemperatureF,Mean TemperatureF,Min TemperatureF,Max Dew PointF,MeanDew PointF,Min DewpointF,Max Humidity, Mean Humidity, Min Humidity, Max Sea Level PressureIn, Mean Sea Level PressureIn, Min Sea Level PressureIn, Max VisibilityMiles, Mean VisibilityMiles, Min VisibilityMiles, Max Wind SpeedMPH, Mean Wind SpeedMPH, Max Gust SpeedMPH,PrecipitationIn, CloudCover, Events, WindDirDegrees
2011-11-1,67,50,33,36,31,21,79,54,28,29.96,29.85,29.77,10,10,10,28,10,66,0.00,0,,94
2011-11-2,43,33,22,34,30,21,100,82,64,30.51,30.30,29.88,10,5,0,33,15,44,0.20,6,Fog-Snow,349
2011-11-3,52,36,19,30,25,16,96,67,38,30.50,30.30,30.01,10,10,10,22,7,28,0.00,0,,181
2011-11-4,72,48,23,38,27,22,92,56,20,30.00,29.84,29.66,10,10,10,26,9,35,0.00,0,,149
2011-11-5,73,56,38,35,27,13,70,44,17,29.62,29.42,29.24,10,9,5,54,20,68,0.00,2,,188
2011-11-6,56,40,23,33,22,14,92,56,20,29.99,29.87,29.61,10,10,10,20,8,25,0.00,0,,129
2011-11-7,53,39,24,38,31,20,92,71,50,30.04,29.99,29.91,10,9,3,16,8,21,0.28,4,Rain,51
2011-11-8,43,36,29,36,33,28,100,85,70,30.33,30.06,29.93,10,7,1,22,10,26,0.38,6,Rain-Snow,6
2011-11-9,50,38,25,29,25,22,92,63,33,30.51,30.44,30.35,10,10,10,14,7,18,0.00,0,,258
2011-11-10,61,41,21,29,25,18,96,58,19,30.42,30.22,30.00,10,10,10,14,8,17,0.00,0,,241
2011-11-11,64,45,26,31,25,17,78,48,17,30.01,29.84,29.59,10,10,10,15,6,16,0.00,0,,221
2011-11-12,72,51,30,28,24,18,89,52,15,29.59,29.49,29.37,10,10,10,31,16,40,0.00,0,,255
2011-11-13,67,47,27,32,28,20,85,54,22,29.60,29.50,29.36,10,10,10,21,10,25,0.00,0,,161
2011-11-14,62,43,24,34,26,18,92,55,17,29.82,29.72,29.64,10,10,10,14,6,18,0.00,0,,209
2011-11-15,61,45,28,28,21,16,85,52,19,29.96,29.84,29.68,10,10,10,16,9,20,0.00,1,,109
2011-11-16,43,32,20,24,18,15,78,56,33,30.43,30.25,29.96,10,10,10,14,7,23,0.00,2,,86
2011-11-17,62,41,19,23,19,13,84,49,14,30.32,30.01,29.75,10,10,10,13,7,15,0.00,0,,196
2011-11-18,73,51,28,25,20,13,72,41,9,29.72,29.57,29.41,10,10,10,20,10,26,0.00,0,,230
2011-11-19,56,39,21,26,23,19,88,57,26,30.12,29.76,29.36,10,10,10,30,10,40,0.00,0,,28
2011-11-20,41,31,21,23,22,19,96,73,50,30.24,30.14,30.07,10,9,6,13,7,17,0.00,2,,95
2011-11-21,43,32,20,26,22,19,100,75,49,30.15,30.07,29.97,10,9,7,12,3,13,0.00,0,,171
2011-11-22,62,42,21,28,24,21,96,59,21,30.20,30.14,30.07,10,10,9,14,8,17,0.00,0,,228
2011-11-23,71,48,24,26,23,20,88,52,15,30.28,30.13,29.98,10,10,10,16,8,21,0.00,0,,205
2011-11-24,75,49,22,27,18,9,84,46,8,29.99,29.88,29.76,10,10,10,13,5,15,0.00,0,,230
2011-11-25,60,48,35,41,29,20,92,58,23,29.86,29.74,29.67,10,10,10,28,7,35,0.01,4,Rain,298
2011-11-26,45,32,19,26,12,6,64,42,20,30.56,30.38,29.92,10,10,6,43,22,55,0.00,1,,352
2011-11-27,58,38,17,16,11,7,68,42,15,30.53,30.37,30.18,10,10,10,,,,0.00,0,,-1
2011-11-28,70,46,21,23,18,14,74,44,13,30.30,30.14,30.00,10,10,10,26,8,30,0.00,0,,304
2011-11-29,54,38,21,27,24,18,81,57,32,30.39,30.28,30.16,10,10,10,13,5,15,0.00,1,,184
2011-11-30,57,36,15,27,22,15,92,61,30,30.12,29.87,29.68,10,10,10,20,5,25,0.00,0,,360